createdAt,value
2019-04-05T00:01:44.501Z,19.23
2019-04-05T00:04:11.045Z,19.77
2019-04-05T00:06:37.600Z,18.47
2019-04-05T00:09:05.337Z,18.70
2019-04-05T00:11:31.973Z,19.70
2019-04-05T00:13:58.561Z,18.93
2019-04-05T00:16:27.080Z,19.97
2019-04-05T00:18:53.668Z,18.43
2019-04-05T00:21:20.186Z,19.40
2019-04-05T00:23:46.769Z,19.33
2019-04-05T00:26:14.488Z,18.87
2019-04-05T00:28:42.224Z,18.67
2019-04-05T00:31:08.807Z,19.83
2019-04-05T00:33:35.429Z,19.37
2019-04-05T00:36:02.014Z,20.53
2019-04-05T00:38:28.634Z,18.40
2019-04-05T00:40:55.232Z,19.17
2019-04-05T00:43:22.054Z,19.40
2019-04-05T00:45:48.615Z,19.30
2019-04-05T00:48:15.254Z,20.10
2019-04-05T00:50:41.824Z,20.03
2019-04-05T00:53:08.481Z,20.07
2019-04-05T00:55:35.738Z,19.70
2019-04-05T00:58:02.452Z,20.43
2019-04-05T01:00:28.992Z,19.17
2019-04-05T01:02:55.636Z,19.50
2019-04-05T01:05:22.181Z,20.03
2019-04-05T01:07:49.242Z,20.53
2019-04-05T01:10:16.181Z,20.73
2019-04-05T01:12:44.932Z,21.67
2019-04-05T01:15:11.878Z,20.00
2019-04-05T01:17:38.765Z,20.87
2019-04-05T01:20:05.660Z,21.17
2019-04-05T01:22:33.556Z,21.70
2019-04-05T01:25:00.169Z,20.97
2019-04-05T01:27:28.771Z,20.30
2019-04-05T01:29:55.415Z,20.37
2019-04-05T01:32:22.266Z,21.30
2019-04-05T01:34:49.334Z,21.80
2019-04-05T01:37:15.831Z,20.70
2019-04-05T01:39:42.421Z,20.63
2019-04-05T01:42:10.204Z,21.30
2019-04-05T01:44:37.276Z,21.47
2019-04-05T01:47:03.812Z,22.97
2019-04-05T01:49:30.374Z,22.73
2019-04-05T01:51:57.167Z,22.67
2019-04-05T01:54:23.928Z,23.00
2019-04-05T01:56:50.581Z,22.10
2019-04-05T01:59:17.132Z,23.90
2019-04-05T02:01:43.786Z,22.77
2019-04-05T02:04:10.338Z,22.43
2019-04-05T02:06:37.204Z,21.60
2019-04-05T02:09:09.821Z,21.70
2019-04-05T02:11:36.367Z,22.43
2019-04-05T02:14:03.111Z,22.10
2019-04-05T02:16:29.760Z,24.10
2019-04-05T02:18:56.421Z,22.60
2019-04-05T02:21:22.971Z,21.97
2019-04-05T02:23:49.704Z,21.53
2019-04-05T02:26:16.250Z,22.80
2019-04-05T02:28:42.803Z,21.37
2019-04-05T02:31:10.435Z,21.80
2019-04-05T02:33:36.996Z,22.03
2019-04-05T02:36:03.751Z,22.37
2019-04-05T02:38:30.397Z,22.07
2019-04-05T02:40:58.767Z,21.70
2019-04-05T02:43:29.542Z,22.63
2019-04-05T02:45:56.495Z,22.87
2019-04-05T02:48:25.316Z,21.20
2019-04-05T02:50:56.511Z,22.63
2019-04-05T02:53:23.519Z,23.73
2019-04-05T02:55:50.996Z,23.50
2019-04-05T02:58:17.996Z,22.87
2019-04-05T03:00:45.288Z,23.93
2019-04-05T03:03:11.883Z,23.60
2019-04-05T03:05:39.162Z,24.10
2019-04-05T03:08:06.656Z,23.67
2019-04-05T03:11:02.582Z,23.37
2019-04-05T03:13:33.669Z,25.20
2019-04-05T03:16:05.840Z,24.77
2019-04-05T03:18:37.054Z,24.27
2019-04-05T03:21:06.439Z,23.90
2019-04-05T03:23:37.643Z,24.70
2019-04-05T03:26:07.915Z,24.67
2019-04-05T03:28:37.136Z,27.73
2019-04-05T03:31:04.257Z,27.83
2019-04-05T03:33:31.032Z,24.60
2019-04-05T03:35:57.800Z,24.47
2019-04-05T03:38:24.300Z,25.03
2019-04-05T03:40:51.467Z,27.37
2019-04-05T03:43:17.980Z,24.80
2019-04-05T03:45:44.845Z,24.67
2019-04-05T03:48:11.495Z,26.40
2019-04-05T03:50:38.187Z,30.73
2019-04-05T03:53:04.894Z,37.90
2019-04-05T03:55:32.863Z,41.97
2019-04-05T03:57:59.470Z,37.87
2019-04-05T04:00:26.620Z,39.63
2019-04-05T04:02:53.231Z,33.90
2019-04-05T04:05:20.008Z,27.10
2019-04-05T04:07:47.411Z,27.43
2019-04-05T04:10:16.890Z,25.83
2019-04-05T04:12:44.490Z,25.50
2019-04-05T04:15:13.798Z,25.33
2019-04-05T04:17:42.012Z,27.23
2019-04-05T04:20:30.542Z,26.77
2019-04-05T04:22:57.279Z,26.03
2019-04-05T04:25:23.918Z,24.73
2019-04-05T04:27:50.690Z,26.83
2019-04-05T04:30:17.662Z,27.50
2019-04-05T04:32:44.673Z,26.87
2019-04-05T04:35:11.345Z,24.87
2019-04-05T04:37:38.298Z,26.27
2019-04-05T04:40:06.136Z,27.73
2019-04-05T04:42:32.806Z,26.60
2019-04-05T04:45:11.299Z,27.57
2019-04-05T04:47:27.857Z,27.33
2019-04-05T04:49:55.851Z,27.67
2019-04-05T04:52:23.113Z,27.23
2019-04-05T04:54:49.728Z,28.83
2019-04-05T04:57:16.390Z,27.33
2019-04-05T04:59:42.987Z,28.83
2019-04-05T05:02:09.866Z,30.13
2019-04-05T05:04:36.565Z,29.37
2019-04-05T05:07:03.446Z,28.33
2019-04-05T05:09:30.831Z,32.03
2019-04-05T05:11:57.432Z,29.73
2019-04-05T05:14:24.449Z,29.20
2019-04-05T05:16:51.436Z,28.57
2019-04-05T05:19:18.329Z,28.27
2019-04-05T05:21:44.975Z,28.43
2019-04-05T05:24:11.745Z,25.53
2019-04-05T05:26:38.561Z,25.60
2019-04-05T05:29:05.182Z,26.47
2019-04-05T05:31:32.657Z,38.83
2019-04-05T05:33:59.357Z,25.90
2019-04-05T05:36:26.338Z,41.50
2019-04-05T05:38:53.065Z,34.73
2019-04-05T05:41:26.568Z,28.00
2019-04-05T05:44:00.387Z,30.57
2019-04-05T05:46:28.495Z,25.40
2019-04-05T05:48:55.132Z,24.10
2019-04-05T05:51:22.103Z,24.73
2019-04-05T05:53:48.640Z,23.50
2019-04-05T05:56:15.178Z,24.07
2019-04-05T05:58:41.821Z,22.70
2019-04-05T06:01:08.391Z,24.97
2019-04-05T06:03:35.125Z,22.27
2019-04-05T06:06:04.432Z,21.53
2019-04-05T06:08:30.151Z,24.37
2019-04-05T06:10:56.658Z,22.10
2019-04-05T06:13:23.343Z,22.07
2019-04-05T06:15:49.974Z,21.73
2019-04-05T06:18:16.556Z,21.43
2019-04-05T06:20:43.063Z,21.77
2019-04-05T06:23:09.644Z,23.37
2019-04-05T06:25:36.212Z,21.00
2019-04-05T06:28:03.089Z,21.37
2019-04-05T06:30:30.728Z,22.47
2019-04-05T06:32:57.423Z,22.27
2019-04-05T06:35:24.086Z,21.53
2019-04-05T06:37:51.877Z,23.37
2019-04-05T06:40:18.400Z,21.57
2019-04-05T06:42:45.351Z,22.13
2019-04-05T06:45:12.180Z,22.17
2019-04-05T06:47:38.925Z,21.73
2019-04-05T06:50:06.080Z,20.90
2019-04-05T06:52:32.684Z,21.63
2019-04-05T06:54:59.179Z,22.90
2019-04-05T06:57:25.765Z,24.17
2019-04-05T06:59:52.414Z,22.90
2019-04-05T07:02:19.218Z,22.40
2019-04-05T07:04:45.708Z,21.60
2019-04-05T07:07:12.292Z,22.07
2019-04-05T07:09:38.769Z,21.20
2019-04-05T07:12:05.452Z,22.50
2019-04-05T07:14:32.221Z,22.03
2019-04-05T07:17:01.049Z,23.37
2019-04-05T07:19:30.755Z,21.37
2019-04-05T07:21:57.257Z,20.63
2019-04-05T07:24:23.854Z,21.50
2019-04-05T07:26:50.369Z,20.93
2019-04-05T07:29:17.004Z,20.27
2019-04-05T07:31:43.657Z,21.55
2019-04-05T07:34:10.354Z,21.40
2019-04-05T07:36:36.854Z,20.00
2019-04-05T07:39:05.552Z,19.15
2019-04-05T07:41:32.137Z,19.67
2019-04-05T07:43:59.114Z,21.50
2019-04-05T07:46:25.618Z,19.43
2019-04-05T07:48:52.657Z,21.70
2019-04-05T07:51:22.515Z,22.63
2019-04-05T07:53:48.646Z,20.57
2019-04-05T07:56:15.249Z,20.80
2019-04-05T07:58:41.841Z,19.93
2019-04-05T08:01:08.342Z,22.97
2019-04-05T08:03:35.041Z,21.60
2019-04-05T08:06:01.670Z,21.50
2019-04-05T08:08:45.655Z,21.87
2019-04-05T08:11:13.057Z,20.97
2019-04-05T08:13:42.738Z,20.73
2019-04-05T08:16:09.231Z,22.07
2019-04-05T08:18:35.801Z,22.43
2019-04-05T08:21:02.409Z,21.57
2019-04-05T08:23:29.923Z,22.37
2019-04-05T08:25:56.512Z,23.63
2019-04-05T08:28:23.442Z,23.33
2019-04-05T08:30:50.410Z,21.00
2019-04-05T08:33:17.102Z,28.30
2019-04-05T08:35:43.686Z,22.00
2019-04-05T08:38:10.175Z,21.30
2019-04-05T08:40:36.774Z,20.93
2019-04-05T08:43:03.368Z,22.37
2019-04-05T08:45:30.045Z,22.90
2019-04-05T08:47:56.554Z,20.07
2019-04-05T08:50:23.501Z,20.90
2019-04-05T08:52:50.119Z,20.60
2019-04-05T08:55:16.771Z,40.37
2019-04-05T08:57:43.270Z,26.53
2019-04-05T09:00:10.589Z,22.03
2019-04-05T09:02:37.176Z,24.17
2019-04-05T09:05:05.873Z,30.67
2019-04-05T09:07:32.383Z,21.07
2019-04-05T09:09:59.013Z,20.77
2019-04-05T09:12:30.638Z,18.53
2019-04-05T09:14:57.655Z,20.30
2019-04-05T09:17:24.166Z,21.60
2019-04-05T09:19:53.761Z,20.83
2019-04-05T09:22:19.162Z,20.73
2019-04-05T09:24:46.031Z,20.07
2019-04-05T09:27:12.560Z,20.40
2019-04-05T09:29:39.155Z,20.73
2019-04-05T09:32:05.693Z,18.83
2019-04-05T09:34:32.616Z,21.03
2019-04-05T09:36:59.446Z,21.20
2019-04-05T09:39:26.057Z,19.70
2019-04-05T09:41:53.297Z,19.83
2019-04-05T09:44:20.053Z,20.27
2019-04-05T09:46:50.912Z,18.73
2019-04-05T09:49:15.085Z,19.97
2019-04-05T09:51:41.684Z,18.67
2019-04-05T09:54:08.203Z,19.57
2019-04-05T09:56:34.882Z,19.83
2019-04-05T09:59:01.377Z,19.80
2019-04-05T10:01:27.957Z,19.70
2019-04-05T10:03:54.468Z,21.57
2019-04-05T10:06:21.035Z,18.67
2019-04-05T10:08:47.525Z,21.53
2019-04-05T10:11:14.108Z,20.57
2019-04-05T10:13:40.601Z,20.40
2019-04-05T10:16:07.186Z,20.60
2019-04-05T10:18:33.684Z,19.07
2019-04-05T10:21:00.260Z,20.00
2019-04-05T10:23:26.854Z,19.60
2019-04-05T10:25:53.540Z,18.13
2019-04-05T10:28:20.042Z,21.17
2019-04-05T10:30:46.627Z,21.50
2019-04-05T10:33:13.241Z,18.53
2019-04-05T10:35:39.832Z,19.43
2019-04-05T10:38:06.338Z,19.07
2019-04-05T10:40:33.070Z,20.60
2019-04-05T10:42:59.669Z,20.50
2019-04-05T10:45:26.455Z,19.13
2019-04-05T10:47:53.503Z,20.17
2019-04-05T10:50:21.465Z,19.43
2019-04-05T10:52:48.141Z,18.30
2019-04-05T10:55:14.842Z,18.23
2019-04-05T10:57:41.429Z,17.70
2019-04-05T11:00:13.139Z,17.87
2019-04-05T11:02:39.817Z,18.37
2019-04-05T11:05:06.626Z,18.50
2019-04-05T11:07:35.038Z,17.30
2019-04-05T11:10:04.019Z,15.77
2019-04-05T11:12:30.609Z,16.30
2019-04-05T11:14:57.091Z,16.05
2019-04-05T11:17:23.840Z,16.10
2019-04-05T11:19:50.388Z,17.30
2019-04-05T11:22:20.209Z,16.42
2019-04-05T11:24:45.383Z,17.10
2019-04-05T11:27:12.070Z,18.83
2019-04-05T11:29:38.629Z,18.13
2019-04-05T11:32:05.258Z,18.57
2019-04-05T11:34:31.909Z,18.50
2019-04-05T11:36:58.647Z,19.20
2019-04-05T11:39:25.606Z,18.57
2019-04-05T11:41:52.338Z,17.63
2019-04-05T11:44:19.558Z,18.07
2019-04-05T11:46:49.175Z,17.83
2019-04-05T11:49:15.282Z,17.97
2019-04-05T11:51:43.286Z,17.97
2019-04-05T11:54:11.707Z,17.97
2019-04-05T11:56:38.375Z,18.77
2019-04-05T11:59:06.681Z,17.80
2019-04-05T12:01:37.738Z,16.80
2019-04-05T12:04:04.326Z,19.20
2019-04-05T12:06:30.927Z,18.60
2019-04-05T12:08:59.329Z,23.87
2019-04-05T12:11:25.932Z,30.50
2019-04-05T12:13:52.804Z,24.67
2019-04-05T12:16:20.403Z,17.67
2019-04-05T12:18:47.025Z,18.13
2019-04-05T12:21:13.741Z,17.70
2019-04-05T12:23:40.317Z,17.40
2019-04-05T12:26:07.940Z,17.30
2019-04-05T12:28:34.488Z,17.55
2019-04-05T12:31:01.229Z,17.80
2019-04-05T12:33:27.830Z,17.02
2019-04-05T12:35:56.547Z,16.23
2019-04-05T12:38:33.279Z,16.27
2019-04-05T12:41:02.402Z,15.72
2019-04-05T12:43:29.627Z,15.68
2019-04-05T12:45:56.338Z,15.90
2019-04-05T12:48:23.278Z,16.12
2019-04-05T12:51:00.519Z,15.08
2019-04-05T12:53:18.423Z,17.12
2019-04-05T12:55:45.108Z,16.90
2019-04-05T12:58:11.866Z,15.25
2019-04-05T13:00:38.964Z,14.70
2019-04-05T13:03:05.779Z,16.13
2019-04-05T13:05:32.337Z,15.63
2019-04-05T13:07:58.983Z,14.53
2019-04-05T13:10:30.297Z,14.33
2019-04-05T13:12:57.965Z,14.15
2019-04-05T13:15:24.921Z,15.13
2019-04-05T13:17:51.575Z,16.37
2019-04-05T13:20:18.480Z,15.58
2019-04-05T13:22:45.220Z,15.23
2019-04-05T13:25:12.001Z,16.20
2019-04-05T13:27:41.285Z,15.20
2019-04-05T13:30:07.997Z,14.33
2019-04-05T13:32:34.521Z,14.47
2019-04-05T13:35:01.135Z,13.50
2019-04-05T13:37:28.486Z,14.33
2019-04-05T13:39:57.632Z,14.57
2019-04-05T13:42:24.617Z,15.27
2019-04-05T13:44:51.461Z,14.75
2019-04-05T13:47:17.970Z,13.90
2019-04-05T13:49:44.572Z,12.20
2019-04-05T13:52:12.005Z,13.83
2019-04-05T13:54:40.370Z,13.67
2019-04-05T13:57:10.801Z,12.83
2019-04-05T13:59:36.989Z,17.30
2019-04-05T14:02:06.214Z,15.00
2019-04-05T14:04:32.292Z,14.67
2019-04-05T14:06:59.022Z,13.80
2019-04-05T14:09:25.561Z,14.47
2019-04-05T14:11:52.111Z,16.53
2019-04-05T14:14:19.025Z,15.67
2019-04-05T14:16:45.833Z,13.53
2019-04-05T14:19:12.365Z,15.47
2019-04-05T14:21:41.122Z,14.30
2019-04-05T14:24:07.452Z,16.00
2019-04-05T14:26:34.036Z,15.70
2019-04-05T14:29:03.398Z,17.30
2019-04-05T14:31:31.636Z,15.17
2019-04-05T14:33:58.785Z,16.90
2019-04-05T14:36:25.335Z,15.63
2019-04-05T14:38:51.979Z,15.07
2019-04-05T14:41:18.595Z,13.30
2019-04-05T14:43:45.667Z,12.63
2019-04-05T14:46:12.335Z,12.90
2019-04-05T14:48:40.928Z,16.57
2019-04-05T14:51:07.611Z,12.43
2019-04-05T14:53:34.268Z,11.83
2019-04-05T14:56:00.933Z,12.27
2019-04-05T14:58:27.477Z,11.70
2019-04-05T15:00:54.253Z,11.60
2019-04-05T15:03:21.303Z,12.60
2019-04-05T15:05:48.225Z,12.67
2019-04-05T15:08:15.085Z,12.53
2019-04-05T15:10:41.625Z,12.33
2019-04-05T15:13:08.176Z,12.03
2019-04-05T15:15:35.137Z,11.93
2019-04-05T15:18:01.685Z,23.60
2019-04-05T15:20:28.233Z,13.10
2019-04-05T15:22:54.782Z,13.57
2019-04-05T15:25:21.851Z,15.40
2019-04-05T15:27:51.318Z,16.90
2019-04-05T15:30:17.486Z,17.73
2019-04-05T15:32:44.413Z,17.13
2019-04-05T15:35:11.646Z,16.63
2019-04-05T15:37:38.404Z,16.47
2019-04-05T15:40:10.222Z,14.60
2019-04-05T15:42:36.892Z,14.13
2019-04-05T15:45:10.238Z,12.87
2019-04-05T15:47:37.121Z,14.47
2019-04-05T15:50:07.436Z,16.20
2019-04-05T15:52:36.820Z,16.00
2019-04-05T15:55:05.476Z,17.67
2019-04-05T15:57:34.237Z,17.10
2019-04-05T16:00:10.045Z,16.70
2019-04-05T16:02:36.851Z,18.05
2019-04-05T16:05:06.368Z,18.10
2019-04-05T16:07:32.969Z,18.40
2019-04-05T16:09:59.555Z,26.07
2019-04-05T16:12:26.161Z,19.17
2019-04-05T16:14:52.665Z,16.80
2019-04-05T16:17:19.556Z,17.87
2019-04-05T16:19:46.518Z,16.30
2019-04-05T16:22:13.182Z,18.73
2019-04-05T16:24:39.683Z,16.90
2019-04-05T16:27:06.282Z,17.07
2019-04-05T16:29:33.791Z,18.43
2019-04-05T16:32:00.412Z,16.27
2019-04-05T16:34:26.985Z,16.70
2019-04-05T16:36:53.597Z,15.67
2019-04-05T16:39:20.187Z,17.57
2019-04-05T16:41:46.876Z,16.23
2019-04-05T16:44:13.371Z,18.10
2019-04-05T16:46:40.078Z,19.47
2019-04-05T16:49:06.588Z,19.37
2019-04-05T16:51:33.226Z,20.03
2019-04-05T16:54:00.808Z,18.83
2019-04-05T16:56:27.940Z,17.60
2019-04-05T16:58:54.506Z,18.90
2019-04-05T17:01:27.288Z,19.70
2019-04-05T17:03:51.142Z,23.13
2019-04-05T17:06:17.681Z,23.87
2019-04-05T17:08:45.593Z,23.70
2019-04-05T17:11:12.431Z,27.20
2019-04-05T17:13:41.598Z,47.43
2019-04-05T17:16:08.202Z,45.07
2019-04-05T17:18:34.881Z,36.10
2019-04-05T17:21:01.395Z,63.73
2019-04-05T17:23:29.255Z,59.43
2019-04-05T17:25:56.064Z,39.73
2019-04-05T17:28:22.749Z,31.77
2019-04-05T17:30:49.254Z,33.37
2019-04-05T17:33:15.848Z,34.70
2019-04-05T17:35:42.365Z,42.20
2019-04-05T17:38:09.306Z,43.57
2019-04-05T17:40:36.294Z,42.63
2019-04-05T17:43:02.873Z,42.67
2019-04-05T17:45:29.400Z,48.97
2019-04-05T17:47:56.181Z,50.83
2019-04-05T17:50:31.542Z,56.60
2019-04-05T17:53:10.905Z,47.90
2019-04-05T17:55:26.797Z,42.20
2019-04-05T17:57:53.833Z,31.30
2019-04-05T18:00:22.299Z,33.43
2019-04-05T18:02:49.339Z,34.97
2019-04-05T18:05:16.055Z,34.33
2019-04-05T18:07:42.765Z,36.87
2019-04-05T18:10:09.483Z,31.87
2019-04-05T18:12:36.209Z,37.87
2019-04-05T18:15:03.500Z,31.83
2019-04-05T18:17:30.714Z,45.93
2019-04-05T18:19:57.283Z,41.07
2019-04-05T18:22:23.862Z,69.27
2019-04-05T18:24:50.516Z,37.53
2019-04-05T18:27:17.214Z,44.53
2019-04-05T18:29:43.835Z,51.77
2019-04-05T18:32:10.331Z,69.80
2019-04-05T18:34:36.930Z,50.57
2019-04-05T18:37:03.517Z,49.77
2019-04-05T18:39:30.122Z,55.63
2019-04-05T18:41:56.656Z,38.00
2019-04-05T18:44:26.207Z,35.00
2019-04-05T18:46:52.923Z,34.13
2019-04-05T18:49:19.509Z,32.13
2019-04-05T18:51:46.064Z,35.27
2019-04-05T18:54:12.813Z,27.30
2019-04-05T18:56:39.346Z,29.87
2019-04-05T18:59:06.601Z,27.60
2019-04-05T19:01:34.201Z,22.10
2019-04-05T19:04:00.804Z,23.77
2019-04-05T19:06:27.327Z,25.97
2019-04-05T19:08:54.472Z,25.43
2019-04-05T19:11:20.989Z,26.90
2019-04-05T19:14:00.131Z,27.53
2019-04-05T19:16:18.880Z,26.47
2019-04-05T19:18:45.467Z,26.63
2019-04-05T19:21:14.618Z,28.63
2019-04-05T19:23:50.804Z,24.67
2019-04-05T19:26:10.121Z,24.10
2019-04-05T19:28:36.829Z,25.63
2019-04-05T19:50:56.855Z,21.40
2019-04-05T19:53:25.013Z,22.70
2019-04-05T19:55:52.388Z,21.77
2019-04-05T19:58:19.599Z,22.07
2019-04-05T20:00:47.087Z,22.20
2019-04-05T20:03:16.379Z,22.63
2019-04-05T20:05:44.837Z,21.57
2019-04-05T20:08:12.392Z,21.50
2019-04-05T20:10:39.265Z,22.37
2019-04-05T20:13:06.444Z,21.37
2019-04-05T20:15:38.183Z,21.90
2019-04-05T20:18:06.942Z,23.40
2019-04-05T20:20:33.684Z,24.73
2019-04-05T20:23:00.292Z,23.63
2019-04-05T20:25:26.891Z,22.87
2019-04-05T20:27:53.856Z,24.90
2019-04-05T20:30:20.654Z,23.73
2019-04-05T20:32:48.092Z,21.87
2019-04-05T20:35:15.429Z,20.00
2019-04-05T20:37:43.148Z,20.67
2019-04-05T20:40:11.232Z,23.57
2019-04-05T20:42:41.770Z,28.50
2019-04-05T20:45:10.878Z,27.83
2019-04-05T20:47:40.395Z,26.00
2019-04-05T20:50:07.594Z,21.47
2019-04-05T20:52:41.049Z,22.07
2019-04-05T20:55:08.267Z,22.27
2019-04-05T20:57:36.340Z,20.97
2019-04-05T21:00:05.290Z,23.03
2019-04-05T21:02:33.768Z,21.90
2019-04-05T21:05:00.354Z,21.10
2019-04-05T21:07:27.473Z,21.63
2019-04-05T21:09:57.305Z,25.57
2019-04-05T21:12:24.797Z,27.27
2019-04-05T21:14:55.463Z,22.83
2019-04-05T21:17:23.602Z,28.50
2019-04-05T21:19:50.825Z,28.70
2019-04-05T21:22:17.523Z,25.83
2019-04-05T21:24:45.351Z,26.57
2019-04-05T21:27:12.744Z,23.47
2019-04-05T21:29:41.886Z,22.83
2019-04-05T21:32:14.901Z,25.60
2019-04-05T21:34:42.209Z,25.47
2019-04-05T21:37:09.227Z,22.83
2019-04-05T21:39:36.216Z,22.53
2019-04-05T21:42:03.255Z,22.50
2019-04-05T21:44:30.161Z,19.80
2019-04-05T21:46:57.869Z,19.87
2019-04-05T21:49:24.459Z,19.60
2019-04-05T21:51:53.699Z,19.73
2019-04-05T21:54:21.648Z,20.20
2019-04-05T21:56:49.309Z,18.97
2019-04-05T21:59:15.894Z,19.03
2019-04-05T22:01:42.601Z,19.13
2019-04-05T22:04:09.208Z,19.67
2019-04-05T22:06:35.901Z,18.30
2019-04-05T22:09:07.317Z,19.47
2019-04-05T22:11:34.089Z,18.53
2019-04-05T22:14:00.593Z,20.60
2019-04-05T22:16:27.181Z,18.93
2019-04-05T22:18:53.774Z,20.13
2019-04-05T22:21:20.379Z,20.07
2019-04-05T22:23:46.873Z,20.77
2019-04-05T22:26:13.470Z,22.03
2019-04-05T22:28:40.102Z,28.40
2019-04-05T22:31:07.802Z,24.70
2019-04-05T22:33:34.407Z,25.07
2019-04-05T22:36:00.905Z,26.20
2019-04-05T22:38:27.490Z,24.77
2019-04-05T22:40:54.004Z,25.73
2019-04-05T22:43:20.619Z,25.07
2019-04-05T22:45:47.116Z,24.57
2019-04-05T22:48:13.713Z,24.93
2019-04-05T22:50:41.422Z,23.57
2019-04-05T22:53:08.017Z,23.70
2019-04-05T22:55:34.570Z,24.53
2019-04-05T22:58:01.162Z,23.07
2019-04-05T23:00:27.763Z,22.37
2019-04-05T23:02:54.316Z,21.60
2019-04-05T23:05:20.956Z,22.27
2019-04-05T23:07:47.708Z,20.63
2019-04-05T23:10:14.503Z,21.93
2019-04-05T23:12:41.075Z,22.20
2019-04-05T23:15:08.040Z,21.93
2019-04-05T23:17:34.662Z,23.53
2019-04-05T23:20:01.314Z,24.27
2019-04-05T23:22:27.857Z,23.87
2019-04-05T23:24:54.401Z,24.40
2019-04-05T23:27:21.013Z,33.03
2019-04-05T23:29:47.490Z,30.00
2019-04-05T23:32:14.082Z,25.17
2019-04-05T23:34:40.710Z,23.07
2019-04-05T23:37:07.373Z,23.73
2019-04-05T23:39:33.960Z,22.43
2019-04-05T23:42:00.467Z,23.80
2019-04-05T23:44:27.068Z,23.30
2019-04-05T23:46:53.568Z,24.97
2019-04-05T23:49:20.166Z,24.23
2019-04-05T23:51:46.681Z,24.27
2019-04-05T23:54:13.304Z,25.83
2019-04-05T23:56:43.033Z,26.57
2019-04-05T23:59:09.662Z,27.43
